sensor_id;sensor_type;location;lat;lon;timestamp;P1;durP1;ratioP1;P2;durP2;ratioP2
70556;SDS011;58107;51.034;3.726;2022-09-13T00:01:36;5.35;;;3.17;;
70556;SDS011;58107;51.034;3.726;2022-09-13T00:04:03;6.33;;;2.95;;
70556;SDS011;58107;51.034;3.726;2022-09-13T00:06:31;5.80;;;2.47;;
70556;SDS011;58107;51.034;3.726;2022-09-13T00:08:59;7.85;;;3.40;;
70556;SDS011;58107;51.034;3.726;2022-09-13T00:11:28;7.28;;;3.10;;
70556;SDS011;58107;51.034;3.726;2022-09-13T00:13:56;5.47;;;2.83;;
70556;SDS011;58107;51.034;3.726;2022-09-13T00:16:25;5.42;;;3.15;;
70556;SDS011;58107;51.034;3.726;2022-09-13T00:21:22;5.30;;;3.20;;
70556;SDS011;58107;51.034;3.726;2022-09-13T00:23:51;9.55;;;3.50;;
70556;SDS011;58107;51.034;3.726;2022-09-13T00:26:21;10.03;;;3.55;;
70556;SDS011;58107;51.034;3.726;2022-09-13T00:28:51;6.05;;;3.20;;
70556;SDS011;58107;51.034;3.726;2022-09-13T00:31:21;4.45;;;3.00;;
70556;SDS011;58107;51.034;3.726;2022-09-13T00:33:49;5.37;;;2.87;;
70556;SDS011;58107;51.034;3.726;2022-09-13T00:36:18;7.85;;;3.33;;
70556;SDS011;58107;51.034;3.726;2022-09-13T00:38:45;6.15;;;3.45;;
70556;SDS011;58107;51.034;3.726;2022-09-13T00:41:17;6.37;;;3.45;;
70556;SDS011;58107;51.034;3.726;2022-09-13T00:43:46;7.58;;;2.83;;
70556;SDS011;58107;51.034;3.726;2022-09-13T00:49:12;10.08;;;3.50;;
70556;SDS011;58107;51.034;3.726;2022-09-13T00:51:46;5.53;;;2.92;;
70556;SDS011;58107;51.034;3.726;2022-09-13T00:54:15;4.50;;;3.10;;
70556;SDS011;58107;51.034;3.726;2022-09-13T00:56:47;7.30;;;3.67;;
70556;SDS011;58107;51.034;3.726;2022-09-13T00:59:29;8.48;;;3.50;;
70556;SDS011;58107;51.034;3.726;2022-09-13T01:01:54;5.58;;;3.37;;
70556;SDS011;58107;51.034;3.726;2022-09-13T01:04:24;6.17;;;3.15;;
70556;SDS011;58107;51.034;3.726;2022-09-13T01:06:54;5.85;;;3.10;;
70556;SDS011;58107;51.034;3.726;2022-09-13T01:09:24;4.60;;;2.90;;
70556;SDS011;58107;51.034;3.726;2022-09-13T01:12:04;6.10;;;3.20;;
70556;SDS011;58107;51.034;3.726;2022-09-13T01:14:37;4.80;;;2.75;;
70556;SDS011;58107;51.034;3.726;2022-09-13T01:17:05;5.75;;;3.00;;
70556;SDS011;58107;51.034;3.726;2022-09-13T01:19:32;6.37;;;3.10;;
70556;SDS011;58107;51.034;3.726;2022-09-13T01:30:21;6.05;;;3.10;;
70556;SDS011;58107;51.034;3.726;2022-09-13T01:33:10;4.83;;;3.17;;
70556;SDS011;58107;51.034;3.726;2022-09-13T01:35:50;6.53;;;3.20;;
70556;SDS011;58107;51.034;3.726;2022-09-13T01:41:09;6.12;;;3.05;;
70556;SDS011;58107;51.034;3.726;2022-09-13T01:49:18;6.05;;;3.37;;
70556;SDS011;58107;51.034;3.726;2022-09-13T01:51:52;5.72;;;3.30;;
70556;SDS011;58107;51.034;3.726;2022-09-13T01:54:30;5.65;;;3.77;;
70556;SDS011;58107;51.034;3.726;2022-09-13T01:57:02;5.53;;;3.08;;
70556;SDS011;58107;51.034;3.726;2022-09-13T02:02:18;6.17;;;3.10;;
70556;SDS011;58107;51.034;3.726;2022-09-13T02:04:47;6.53;;;3.22;;
70556;SDS011;58107;51.034;3.726;2022-09-13T02:07:35;6.85;;;2.90;;
70556;SDS011;58107;51.034;3.726;2022-09-13T02:10:07;6.70;;;3.25;;
70556;SDS011;58107;51.034;3.726;2022-09-13T02:12:54;5.80;;;3.47;;
70556;SDS011;58107;51.034;3.726;2022-09-13T02:15:26;7.03;;;3.20;;
70556;SDS011;58107;51.034;3.726;2022-09-13T02:18:08;4.53;;;3.22;;
70556;SDS011;58107;51.034;3.726;2022-09-13T02:20:53;7.20;;;3.00;;
70556;SDS011;58107;51.034;3.726;2022-09-13T02:23:24;4.00;;;2.75;;
70556;SDS011;58107;51.034;3.726;2022-09-13T02:25:53;7.87;;;3.40;;
70556;SDS011;58107;51.034;3.726;2022-09-13T02:28:26;4.92;;;3.05;;
70556;SDS011;58107;51.034;3.726;2022-09-13T02:30:53;7.70;;;3.47;;
70556;SDS011;58107;51.034;3.726;2022-09-13T02:33:25;8.13;;;3.65;;
70556;SDS011;58107;51.034;3.726;2022-09-13T02:36:04;6.58;;;3.70;;
70556;SDS011;58107;51.034;3.726;2022-09-13T02:38:47;6.55;;;4.03;;
70556;SDS011;58107;51.034;3.726;2022-09-13T02:41:20;7.47;;;4.10;;
70556;SDS011;58107;51.034;3.726;2022-09-13T02:43:54;6.58;;;3.60;;
70556;SDS011;58107;51.034;3.726;2022-09-13T02:59:47;7.78;;;4.10;;
70556;SDS011;58107;51.034;3.726;2022-09-13T03:02:17;7.50;;;4.15;;
70556;SDS011;58107;51.034;3.726;2022-09-13T03:04:47;5.28;;;3.47;;
70556;SDS011;58107;51.034;3.726;2022-09-13T03:07:17;7.08;;;4.05;;
70556;SDS011;58107;51.034;3.726;2022-09-13T03:09:46;5.58;;;3.58;;
70556;SDS011;58107;51.034;3.726;2022-09-13T03:15:13;8.10;;;3.90;;
70556;SDS011;58107;51.034;3.726;2022-09-13T03:31:38;8.10;;;3.77;;
70556;SDS011;58107;51.034;3.726;2022-09-13T03:34:14;12.20;;;3.72;;
70556;SDS011;58107;51.034;3.726;2022-09-13T03:36:44;6.85;;;3.90;;
70556;SDS011;58107;51.034;3.726;2022-09-13T03:39:19;6.87;;;3.75;;
70556;SDS011;58107;51.034;3.726;2022-09-13T03:41:55;9.45;;;4.15;;
70556;SDS011;58107;51.034;3.726;2022-09-13T03:44:25;5.97;;;4.15;;
70556;SDS011;58107;51.034;3.726;2022-09-13T03:46:56;5.53;;;3.47;;
70556;SDS011;58107;51.034;3.726;2022-09-13T03:49:27;8.90;;;4.15;;
70556;SDS011;58107;51.034;3.726;2022-09-13T03:54:33;5.25;;;3.98;;
70556;SDS011;58107;51.034;3.726;2022-09-13T03:57:07;6.55;;;4.08;;
70556;SDS011;58107;51.034;3.726;2022-09-13T03:59:48;9.70;;;4.05;;
70556;SDS011;58107;51.034;3.726;2022-09-13T04:02:13;5.80;;;4.00;;
70556;SDS011;58107;51.034;3.726;2022-09-13T04:04:42;5.10;;;4.00;;
70556;SDS011;58107;51.034;3.726;2022-09-13T04:07:12;9.63;;;4.20;;
70556;SDS011;58107;51.034;3.726;2022-09-13T04:09:42;7.22;;;4.12;;
70556;SDS011;58107;51.034;3.726;2022-09-13T04:12:11;8.20;;;4.03;;
70556;SDS011;58107;51.034;3.726;2022-09-13T04:17:08;10.55;;;4.40;;
70556;SDS011;58107;51.034;3.726;2022-09-13T04:19:37;8.48;;;4.37;;
70556;SDS011;58107;51.034;3.726;2022-09-13T04:22:05;9.78;;;4.72;;
70556;SDS011;58107;51.034;3.726;2022-09-13T04:24:33;9.60;;;4.95;;
70556;SDS011;58107;51.034;3.726;2022-09-13T04:27:01;9.30;;;4.90;;
70556;SDS011;58107;51.034;3.726;2022-09-13T04:29:29;11.35;;;4.87;;
70556;SDS011;58107;51.034;3.726;2022-09-13T04:31:58;8.88;;;5.03;;
70556;SDS011;58107;51.034;3.726;2022-09-13T04:34:26;7.30;;;5.03;;
70556;SDS011;58107;51.034;3.726;2022-09-13T04:36:54;12.88;;;5.10;;
70556;SDS011;58107;51.034;3.726;2022-09-13T04:39:22;9.65;;;5.28;;
70556;SDS011;58107;51.034;3.726;2022-09-13T04:41:50;7.75;;;5.17;;
70556;SDS011;58107;51.034;3.726;2022-09-13T04:44:19;11.43;;;4.72;;
70556;SDS011;58107;51.034;3.726;2022-09-13T04:49:17;6.22;;;4.55;;
70556;SDS011;58107;51.034;3.726;2022-09-13T04:51:47;9.10;;;4.53;;
70556;SDS011;58107;51.034;3.726;2022-09-13T04:54:15;6.80;;;4.30;;
70556;SDS011;58107;51.034;3.726;2022-09-13T04:56:43;5.75;;;4.00;;
70556;SDS011;58107;51.034;3.726;2022-09-13T04:59:12;11.12;;;5.03;;
70556;SDS011;58107;51.034;3.726;2022-09-13T05:01:40;8.53;;;4.70;;
70556;SDS011;58107;51.034;3.726;2022-09-13T05:04:08;8.33;;;5.08;;
70556;SDS011;58107;51.034;3.726;2022-09-13T05:06:36;6.47;;;4.97;;
70556;SDS011;58107;51.034;3.726;2022-09-13T05:09:04;10.58;;;5.00;;
70556;SDS011;58107;51.034;3.726;2022-09-13T05:11:32;13.35;;;5.28;;
70556;SDS011;58107;51.034;3.726;2022-09-13T05:14:00;17.10;;;5.92;;
70556;SDS011;58107;51.034;3.726;2022-09-13T05:16:29;9.08;;;5.67;;
70556;SDS011;58107;51.034;3.726;2022-09-13T05:18:59;11.28;;;5.42;;
70556;SDS011;58107;51.034;3.726;2022-09-13T05:21:28;8.25;;;5.53;;
70556;SDS011;58107;51.034;3.726;2022-09-13T05:23:56;11.00;;;5.10;;
70556;SDS011;58107;51.034;3.726;2022-09-13T05:26:25;11.83;;;5.78;;
70556;SDS011;58107;51.034;3.726;2022-09-13T05:28:56;8.93;;;5.05;;
70556;SDS011;58107;51.034;3.726;2022-09-13T05:31:29;8.30;;;5.60;;
70556;SDS011;58107;51.034;3.726;2022-09-13T05:33:57;11.53;;;5.95;;
70556;SDS011;58107;51.034;3.726;2022-09-13T05:36:26;8.98;;;5.00;;
70556;SDS011;58107;51.034;3.726;2022-09-13T05:38:55;8.70;;;5.53;;
70556;SDS011;58107;51.034;3.726;2022-09-13T05:41:23;9.28;;;5.50;;
70556;SDS011;58107;51.034;3.726;2022-09-13T05:43:51;9.38;;;5.05;;
70556;SDS011;58107;51.034;3.726;2022-09-13T05:46:19;12.88;;;5.15;;
70556;SDS011;58107;51.034;3.726;2022-09-13T05:48:48;14.05;;;6.05;;
70556;SDS011;58107;51.034;3.726;2022-09-13T05:51:17;11.80;;;5.67;;
70556;SDS011;58107;51.034;3.726;2022-09-13T05:53:51;8.45;;;5.28;;
70556;SDS011;58107;51.034;3.726;2022-09-13T05:56:17;12.60;;;5.70;;
70556;SDS011;58107;51.034;3.726;2022-09-13T05:58:47;14.43;;;5.83;;
70556;SDS011;58107;51.034;3.726;2022-09-13T06:01:17;9.55;;;4.95;;
70556;SDS011;58107;51.034;3.726;2022-09-13T06:03:50;11.70;;;5.60;;
70556;SDS011;58107;51.034;3.726;2022-09-13T06:06:20;12.20;;;5.78;;
70556;SDS011;58107;51.034;3.726;2022-09-13T06:08:52;19.40;;;6.30;;
70556;SDS011;58107;51.034;3.726;2022-09-13T06:11:21;23.27;;;6.60;;
70556;SDS011;58107;51.034;3.726;2022-09-13T06:13:51;10.45;;;6.05;;
70556;SDS011;58107;51.034;3.726;2022-09-13T06:16:18;25.43;;;6.05;;
70556;SDS011;58107;51.034;3.726;2022-09-13T06:18:47;8.60;;;6.15;;
70556;SDS011;58107;51.034;3.726;2022-09-13T06:21:16;10.90;;;5.78;;
70556;SDS011;58107;51.034;3.726;2022-09-13T06:23:46;14.78;;;7.20;;
70556;SDS011;58107;51.034;3.726;2022-09-13T06:26:18;12.68;;;6.72;;
70556;SDS011;58107;51.034;3.726;2022-09-13T06:28:47;16.62;;;7.50;;
70556;SDS011;58107;51.034;3.726;2022-09-13T06:33:44;16.42;;;7.92;;
70556;SDS011;58107;51.034;3.726;2022-09-13T06:36:16;13.32;;;7.65;;
70556;SDS011;58107;51.034;3.726;2022-09-13T06:38:45;17.95;;;8.63;;
70556;SDS011;58107;51.034;3.726;2022-09-13T06:41:15;17.95;;;10.70;;
70556;SDS011;58107;51.034;3.726;2022-09-13T06:43:45;21.37;;;11.68;;
70556;SDS011;58107;51.034;3.726;2022-09-13T06:46:14;17.07;;;8.60;;
70556;SDS011;58107;51.034;3.726;2022-09-13T06:48:44;21.02;;;9.03;;
70556;SDS011;58107;51.034;3.726;2022-09-13T06:51:14;30.45;;;10.08;;
70556;SDS011;58107;51.034;3.726;2022-09-13T06:53:45;26.30;;;10.25;;
70556;SDS011;58107;51.034;3.726;2022-09-13T06:56:14;25.32;;;9.85;;
70556;SDS011;58107;51.034;3.726;2022-09-13T06:58:44;21.55;;;10.03;;
70556;SDS011;58107;51.034;3.726;2022-09-13T07:03:50;27.98;;;17.17;;
70556;SDS011;58107;51.034;3.726;2022-09-13T07:06:18;30.20;;;15.50;;
70556;SDS011;58107;51.034;3.726;2022-09-13T07:08:49;25.72;;;11.75;;
70556;SDS011;58107;51.034;3.726;2022-09-13T07:11:18;17.92;;;9.08;;
70556;SDS011;58107;51.034;3.726;2022-09-13T07:13:48;17.60;;;8.65;;
70556;SDS011;58107;51.034;3.726;2022-09-13T07:16:18;16.70;;;8.50;;
70556;SDS011;58107;51.034;3.726;2022-09-13T07:18:55;16.57;;;8.73;;
70556;SDS011;58107;51.034;3.726;2022-09-13T07:21:24;14.53;;;8.65;;
70556;SDS011;58107;51.034;3.726;2022-09-13T07:23:53;19.80;;;10.98;;
70556;SDS011;58107;51.034;3.726;2022-09-13T07:26:22;22.73;;;11.85;;
70556;SDS011;58107;51.034;3.726;2022-09-13T07:28:51;19.80;;;11.85;;
70556;SDS011;58107;51.034;3.726;2022-09-13T07:31:22;20.17;;;11.00;;
70556;SDS011;58107;51.034;3.726;2022-09-13T07:33:55;28.50;;;12.63;;
70556;SDS011;58107;51.034;3.726;2022-09-13T07:36:26;23.87;;;14.00;;
70556;SDS011;58107;51.034;3.726;2022-09-13T07:38:55;25.37;;;14.00;;
70556;SDS011;58107;51.034;3.726;2022-09-13T07:43:53;27.87;;;16.57;;
70556;SDS011;58107;51.034;3.726;2022-09-13T07:46:22;30.48;;;14.47;;
70556;SDS011;58107;51.034;3.726;2022-09-13T07:48:52;40.17;;;17.05;;
70556;SDS011;58107;51.034;3.726;2022-09-13T07:51:23;28.27;;;17.87;;
70556;SDS011;58107;51.034;3.726;2022-09-13T07:53:54;31.37;;;17.25;;
70556;SDS011;58107;51.034;3.726;2022-09-13T07:56:24;27.73;;;15.78;;
70556;SDS011;58107;51.034;3.726;2022-09-13T07:58:53;26.93;;;15.25;;
70556;SDS011;58107;51.034;3.726;2022-09-13T08:01:25;31.42;;;15.58;;
70556;SDS011;58107;51.034;3.726;2022-09-13T08:03:57;33.05;;;16.02;;
70556;SDS011;58107;51.034;3.726;2022-09-13T08:06:27;30.05;;;16.10;;
70556;SDS011;58107;51.034;3.726;2022-09-13T08:08:56;31.77;;;16.02;;
70556;SDS011;58107;51.034;3.726;2022-09-13T08:11:26;23.00;;;14.35;;
70556;SDS011;58107;51.034;3.726;2022-09-13T08:13:55;22.42;;;12.45;;
70556;SDS011;58107;51.034;3.726;2022-09-13T08:16:23;23.50;;;13.65;;
70556;SDS011;58107;51.034;3.726;2022-09-13T08:21:21;25.20;;;12.98;;
70556;SDS011;58107;51.034;3.726;2022-09-13T08:23:53;23.45;;;14.38;;
70556;SDS011;58107;51.034;3.726;2022-09-13T08:26:23;26.05;;;16.07;;
70556;SDS011;58107;51.034;3.726;2022-09-13T08:28:56;27.23;;;17.07;;
70556;SDS011;58107;51.034;3.726;2022-09-13T08:31:25;24.80;;;15.78;;
70556;SDS011;58107;51.034;3.726;2022-09-13T08:33:54;23.07;;;15.37;;
70556;SDS011;58107;51.034;3.726;2022-09-13T08:36:24;21.95;;;14.95;;
70556;SDS011;58107;51.034;3.726;2022-09-13T08:38:53;26.60;;;16.20;;
70556;SDS011;58107;51.034;3.726;2022-09-13T08:44:21;21.40;;;14.90;;
70556;SDS011;58107;51.034;3.726;2022-09-13T08:50:09;19.23;;;14.63;;
70556;SDS011;58107;51.034;3.726;2022-09-13T08:55:40;24.43;;;14.45;;
70556;SDS011;58107;51.034;3.726;2022-09-13T09:01:42;24.02;;;16.30;;
70556;SDS011;58107;51.034;3.726;2022-09-13T09:03:40;25.97;;;17.52;;
70556;SDS011;58107;51.034;3.726;2022-09-13T09:06:12;20.70;;;16.77;;
70556;SDS011;58107;51.034;3.726;2022-09-13T09:13:58;15.68;;;12.50;;
70556;SDS011;58107;51.034;3.726;2022-09-13T09:16:27;18.92;;;13.90;;
70556;SDS011;58107;51.034;3.726;2022-09-13T09:18:56;16.32;;;11.48;;
70556;SDS011;58107;51.034;3.726;2022-09-13T09:21:26;18.20;;;11.80;;
70556;SDS011;58107;51.034;3.726;2022-09-13T09:23:55;15.75;;;11.65;;
70556;SDS011;58107;51.034;3.726;2022-09-13T09:26:25;19.67;;;12.53;;
70556;SDS011;58107;51.034;3.726;2022-09-13T09:28:55;20.30;;;11.45;;
70556;SDS011;58107;51.034;3.726;2022-09-13T09:31:33;15.63;;;11.20;;
70556;SDS011;58107;51.034;3.726;2022-09-13T09:36:39;11.18;;;8.60;;
70556;SDS011;58107;51.034;3.726;2022-09-13T09:39:11;14.00;;;9.05;;
70556;SDS011;58107;51.034;3.726;2022-09-13T09:41:41;13.10;;;9.50;;
70556;SDS011;58107;51.034;3.726;2022-09-13T09:44:20;17.30;;;9.05;;
70556;SDS011;58107;51.034;3.726;2022-09-13T09:49:36;28.57;;;12.60;;
70556;SDS011;58107;51.034;3.726;2022-09-13T09:52:30;19.37;;;10.58;;
70556;SDS011;58107;51.034;3.726;2022-09-13T09:54:55;21.73;;;10.75;;
70556;SDS011;58107;51.034;3.726;2022-09-13T10:00:17;20.37;;;11.70;;
70556;SDS011;58107;51.034;3.726;2022-09-13T10:02:45;26.00;;;11.93;;
70556;SDS011;58107;51.034;3.726;2022-09-13T10:05:17;15.53;;;10.80;;
70556;SDS011;58107;51.034;3.726;2022-09-13T10:07:50;16.87;;;10.58;;
70556;SDS011;58107;51.034;3.726;2022-09-13T10:10:20;14.38;;;8.70;;
70556;SDS011;58107;51.034;3.726;2022-09-13T10:12:56;14.60;;;8.43;;
70556;SDS011;58107;51.034;3.726;2022-09-13T10:15:29;13.78;;;8.83;;
70556;SDS011;58107;51.034;3.726;2022-09-13T10:20:33;12.70;;;8.65;;
70556;SDS011;58107;51.034;3.726;2022-09-13T10:23:16;12.07;;;8.03;;
70556;SDS011;58107;51.034;3.726;2022-09-13T10:25:42;14.98;;;9.08;;
70556;SDS011;58107;51.034;3.726;2022-09-13T10:28:24;12.07;;;7.97;;
70556;SDS011;58107;51.034;3.726;2022-09-13T10:30:57;10.95;;;8.80;;
70556;SDS011;58107;51.034;3.726;2022-09-13T10:33:37;13.22;;;7.62;;
70556;SDS011;58107;51.034;3.726;2022-09-13T10:36:05;12.65;;;7.30;;
70556;SDS011;58107;51.034;3.726;2022-09-13T10:38:49;15.68;;;7.67;;
70556;SDS011;58107;51.034;3.726;2022-09-13T10:41:27;8.58;;;6.47;;
70556;SDS011;58107;51.034;3.726;2022-09-13T10:43:58;8.38;;;6.20;;
70556;SDS011;58107;51.034;3.726;2022-09-13T10:46:30;11.12;;;6.65;;
70556;SDS011;58107;51.034;3.726;2022-09-13T10:49:00;14.63;;;6.50;;
70556;SDS011;58107;51.034;3.726;2022-09-13T10:51:30;12.88;;;6.72;;
70556;SDS011;58107;51.034;3.726;2022-09-13T10:54:22;11.28;;;7.03;;
70556;SDS011;58107;51.034;3.726;2022-09-13T10:56:51;13.50;;;6.87;;
70556;SDS011;58107;51.034;3.726;2022-09-13T10:59:20;14.15;;;7.28;;
70556;SDS011;58107;51.034;3.726;2022-09-13T11:02:01;9.63;;;6.40;;
70556;SDS011;58107;51.034;3.726;2022-09-13T11:12:48;13.10;;;7.00;;
70556;SDS011;58107;51.034;3.726;2022-09-13T11:18:19;10.72;;;6.92;;
70556;SDS011;58107;51.034;3.726;2022-09-13T11:21:09;11.30;;;7.25;;
70556;SDS011;58107;51.034;3.726;2022-09-13T11:23:59;15.15;;;7.50;;
70556;SDS011;58107;51.034;3.726;2022-09-13T11:40:42;13.05;;;9.83;;
70556;SDS011;58107;51.034;3.726;2022-09-13T11:46:04;13.55;;;9.18;;
70556;SDS011;58107;51.034;3.726;2022-09-13T11:48:44;12.03;;;9.20;;
70556;SDS011;58107;51.034;3.726;2022-09-13T11:54:33;14.33;;;8.30;;
70556;SDS011;58107;51.034;3.726;2022-09-13T11:57:01;15.55;;;9.95;;
70556;SDS011;58107;51.034;3.726;2022-09-13T12:02:23;15.65;;;9.85;;
70556;SDS011;58107;51.034;3.726;2022-09-13T12:04:57;14.53;;;9.65;;
70556;SDS011;58107;51.034;3.726;2022-09-13T12:07:24;20.05;;;11.57;;
70556;SDS011;58107;51.034;3.726;2022-09-13T12:10:02;18.12;;;11.08;;
70556;SDS011;58107;51.034;3.726;2022-09-13T12:12:28;21.17;;;10.82;;
70556;SDS011;58107;51.034;3.726;2022-09-13T12:15:03;13.65;;;10.00;;
70556;SDS011;58107;51.034;3.726;2022-09-13T12:17:39;19.35;;;9.40;;
70556;SDS011;58107;51.034;3.726;2022-09-13T12:20:05;13.35;;;9.63;;
70556;SDS011;58107;51.034;3.726;2022-09-13T12:22:41;15.03;;;10.30;;
70556;SDS011;58107;51.034;3.726;2022-09-13T12:25:18;18.00;;;11.90;;
70556;SDS011;58107;51.034;3.726;2022-09-13T12:27:53;14.45;;;10.58;;
70556;SDS011;58107;51.034;3.726;2022-09-13T12:30:32;20.85;;;11.45;;
70556;SDS011;58107;51.034;3.726;2022-09-13T12:32:57;21.20;;;11.63;;
70556;SDS011;58107;51.034;3.726;2022-09-13T12:35:33;16.02;;;11.60;;
70556;SDS011;58107;51.034;3.726;2022-09-13T12:38:22;26.55;;;13.18;;
70556;SDS011;58107;51.034;3.726;2022-09-13T12:46:36;18.73;;;11.90;;
70556;SDS011;58107;51.034;3.726;2022-09-13T12:55:18;18.62;;;11.22;;
70556;SDS011;58107;51.034;3.726;2022-09-13T12:57:56;15.20;;;11.78;;
70556;SDS011;58107;51.034;3.726;2022-09-13T13:00:37;19.98;;;11.60;;
70556;SDS011;58107;51.034;3.726;2022-09-13T13:05:53;17.67;;;11.25;;
70556;SDS011;58107;51.034;3.726;2022-09-13T13:10:59;18.87;;;11.48;;
70556;SDS011;58107;51.034;3.726;2022-09-13T13:13:38;18.37;;;12.28;;
70556;SDS011;58107;51.034;3.726;2022-09-13T13:16:25;16.77;;;11.93;;
70556;SDS011;58107;51.034;3.726;2022-09-13T13:18:55;18.23;;;11.90;;
70556;SDS011;58107;51.034;3.726;2022-09-13T13:21:25;18.15;;;11.68;;
70556;SDS011;58107;51.034;3.726;2022-09-13T13:26:48;19.02;;;11.57;;
70556;SDS011;58107;51.034;3.726;2022-09-13T13:34:30;16.07;;;10.38;;
70556;SDS011;58107;51.034;3.726;2022-09-13T13:37:27;16.27;;;10.03;;
70556;SDS011;58107;51.034;3.726;2022-09-13T13:39:37;16.45;;;10.13;;
70556;SDS011;58107;51.034;3.726;2022-09-13T13:42:24;20.08;;;10.88;;
70556;SDS011;58107;51.034;3.726;2022-09-13T13:52:42;16.82;;;10.88;;
70556;SDS011;58107;51.034;3.726;2022-09-13T13:58:00;17.87;;;10.10;;
70556;SDS011;58107;51.034;3.726;2022-09-13T14:00:47;15.40;;;10.38;;
70556;SDS011;58107;51.034;3.726;2022-09-13T14:06:30;17.05;;;10.53;;
70556;SDS011;58107;51.034;3.726;2022-09-13T14:17:32;14.83;;;9.28;;
70556;SDS011;58107;51.034;3.726;2022-09-13T14:20:14;11.97;;;7.45;;
70556;SDS011;58107;51.034;3.726;2022-09-13T14:22:44;13.50;;;7.95;;
70556;SDS011;58107;51.034;3.726;2022-09-13T14:27:51;13.70;;;8.33;;
70556;SDS011;58107;51.034;3.726;2022-09-13T14:30:55;13.93;;;8.95;;
70556;SDS011;58107;51.034;3.726;2022-09-13T14:32:59;11.77;;;8.37;;
70556;SDS011;58107;51.034;3.726;2022-09-13T14:35:30;16.50;;;8.55;;
70556;SDS011;58107;51.034;3.726;2022-09-13T14:38:17;12.75;;;8.28;;
70556;SDS011;58107;51.034;3.726;2022-09-13T14:40:49;12.63;;;8.60;;
70556;SDS011;58107;51.034;3.726;2022-09-13T14:43:22;11.80;;;8.50;;
70556;SDS011;58107;51.034;3.726;2022-09-13T14:48:37;15.95;;;12.37;;
70556;SDS011;58107;51.034;3.726;2022-09-13T14:51:13;20.00;;;12.43;;
70556;SDS011;58107;51.034;3.726;2022-09-13T14:57:02;22.22;;;14.47;;
70556;SDS011;58107;51.034;3.726;2022-09-13T14:58:52;27.70;;;15.85;;
70556;SDS011;58107;51.034;3.726;2022-09-13T15:01:25;22.98;;;16.40;;
70556;SDS011;58107;51.034;3.726;2022-09-13T15:03:54;25.72;;;17.67;;
70556;SDS011;58107;51.034;3.726;2022-09-13T15:06:25;24.23;;;18.55;;
70556;SDS011;58107;51.034;3.726;2022-09-13T15:08:56;24.77;;;18.55;;
70556;SDS011;58107;51.034;3.726;2022-09-13T15:11:29;24.52;;;18.82;;
70556;SDS011;58107;51.034;3.726;2022-09-13T15:14:00;34.13;;;20.88;;
70556;SDS011;58107;51.034;3.726;2022-09-13T15:16:29;27.42;;;20.05;;
70556;SDS011;58107;51.034;3.726;2022-09-13T15:19:25;31.90;;;21.03;;
70556;SDS011;58107;51.034;3.726;2022-09-13T15:21:53;29.20;;;22.05;;
70556;SDS011;58107;51.034;3.726;2022-09-13T15:27:06;27.82;;;20.02;;
70556;SDS011;58107;51.034;3.726;2022-09-13T15:29:30;27.55;;;19.62;;
70556;SDS011;58107;51.034;3.726;2022-09-13T15:32:00;29.15;;;20.48;;
70556;SDS011;58107;51.034;3.726;2022-09-13T15:34:29;27.50;;;20.00;;
70556;SDS011;58107;51.034;3.726;2022-09-13T15:37:05;27.00;;;20.68;;
70556;SDS011;58107;51.034;3.726;2022-09-13T15:42:12;37.90;;;22.85;;
70556;SDS011;58107;51.034;3.726;2022-09-13T15:44:40;29.52;;;21.45;;
70556;SDS011;58107;51.034;3.726;2022-09-13T15:47:14;32.93;;;22.93;;
70556;SDS011;58107;51.034;3.726;2022-09-13T15:49:39;27.20;;;20.68;;
70556;SDS011;58107;51.034;3.726;2022-09-13T15:52:07;28.60;;;21.33;;
70556;SDS011;58107;51.034;3.726;2022-09-13T15:54:36;38.10;;;21.23;;
70556;SDS011;58107;51.034;3.726;2022-09-13T15:57:15;34.58;;;20.85;;
70556;SDS011;58107;51.034;3.726;2022-09-13T15:59:39;30.20;;;20.88;;
70556;SDS011;58107;51.034;3.726;2022-09-13T16:02:20;30.17;;;21.55;;
70556;SDS011;58107;51.034;3.726;2022-09-13T16:04:53;27.98;;;19.15;;
70556;SDS011;58107;51.034;3.726;2022-09-13T16:07:22;26.37;;;18.10;;
70556;SDS011;58107;51.034;3.726;2022-09-13T16:12:18;25.27;;;18.65;;
70556;SDS011;58107;51.034;3.726;2022-09-13T16:14:48;25.43;;;20.05;;
70556;SDS011;58107;51.034;3.726;2022-09-13T16:17:21;26.07;;;19.07;;
70556;SDS011;58107;51.034;3.726;2022-09-13T16:19:50;33.15;;;20.15;;
70556;SDS011;58107;51.034;3.726;2022-09-13T16:22:18;29.80;;;20.77;;
70556;SDS011;58107;51.034;3.726;2022-09-13T16:24:47;25.85;;;18.12;;
70556;SDS011;58107;51.034;3.726;2022-09-13T16:27:16;31.73;;;18.90;;
70556;SDS011;58107;51.034;3.726;2022-09-13T16:29:45;24.35;;;17.50;;
70556;SDS011;58107;51.034;3.726;2022-09-13T16:32:13;21.93;;;15.25;;
70556;SDS011;58107;51.034;3.726;2022-09-13T16:34:41;23.77;;;14.93;;
70556;SDS011;58107;51.034;3.726;2022-09-13T16:37:11;24.55;;;13.88;;
70556;SDS011;58107;51.034;3.726;2022-09-13T16:39:41;18.42;;;13.43;;
70556;SDS011;58107;51.034;3.726;2022-09-13T16:42:11;20.10;;;15.10;;
70556;SDS011;58107;51.034;3.726;2022-09-13T16:44:40;18.80;;;13.22;;
70556;SDS011;58107;51.034;3.726;2022-09-13T16:47:08;18.73;;;12.88;;
70556;SDS011;58107;51.034;3.726;2022-09-13T16:49:36;18.27;;;11.35;;
70556;SDS011;58107;51.034;3.726;2022-09-13T16:52:05;17.73;;;10.80;;
70556;SDS011;58107;51.034;3.726;2022-09-13T16:54:34;14.07;;;10.27;;
70556;SDS011;58107;51.034;3.726;2022-09-13T16:57:03;18.20;;;10.90;;
70556;SDS011;58107;51.034;3.726;2022-09-13T16:59:32;17.70;;;10.63;;
70556;SDS011;58107;51.034;3.726;2022-09-13T17:02:00;11.73;;;9.50;;
70556;SDS011;58107;51.034;3.726;2022-09-13T17:04:28;12.75;;;9.00;;
70556;SDS011;58107;51.034;3.726;2022-09-13T17:06:56;16.65;;;10.72;;
70556;SDS011;58107;51.034;3.726;2022-09-13T17:09:25;16.25;;;9.70;;
70556;SDS011;58107;51.034;3.726;2022-09-13T17:11:53;18.77;;;9.43;;
70556;SDS011;58107;51.034;3.726;2022-09-13T17:14:21;14.98;;;8.45;;
70556;SDS011;58107;51.034;3.726;2022-09-13T17:16:49;17.50;;;8.18;;
70556;SDS011;58107;51.034;3.726;2022-09-13T17:19:23;13.48;;;8.10;;
70556;SDS011;58107;51.034;3.726;2022-09-13T17:21:59;15.03;;;7.67;;
70556;SDS011;58107;51.034;3.726;2022-09-13T17:24:28;17.27;;;8.10;;
70556;SDS011;58107;51.034;3.726;2022-09-13T17:26:56;12.40;;;7.12;;
70556;SDS011;58107;51.034;3.726;2022-09-13T17:29:25;12.28;;;6.62;;
70556;SDS011;58107;51.034;3.726;2022-09-13T17:34:21;10.90;;;5.70;;
70556;SDS011;58107;51.034;3.726;2022-09-13T17:36:49;14.98;;;5.58;;
70556;SDS011;58107;51.034;3.726;2022-09-13T17:39:17;15.53;;;5.75;;
70556;SDS011;58107;51.034;3.726;2022-09-13T17:41:46;10.78;;;4.70;;
70556;SDS011;58107;51.034;3.726;2022-09-13T17:44:14;11.75;;;4.75;;
70556;SDS011;58107;51.034;3.726;2022-09-13T17:46:42;11.45;;;4.40;;
70556;SDS011;58107;51.034;3.726;2022-09-13T17:49:10;9.50;;;4.40;;
70556;SDS011;58107;51.034;3.726;2022-09-13T17:51:37;12.78;;;4.78;;
70556;SDS011;58107;51.034;3.726;2022-09-13T17:54:06;11.83;;;4.80;;
70556;SDS011;58107;51.034;3.726;2022-09-13T17:56:35;11.93;;;5.20;;
70556;SDS011;58107;51.034;3.726;2022-09-13T18:01:39;12.90;;;4.87;;
70556;SDS011;58107;51.034;3.726;2022-09-13T18:04:09;18.40;;;5.28;;
70556;SDS011;58107;51.034;3.726;2022-09-13T18:06:38;12.47;;;4.97;;
70556;SDS011;58107;51.034;3.726;2022-09-13T18:09:08;10.10;;;4.90;;
70556;SDS011;58107;51.034;3.726;2022-09-13T18:11:36;10.72;;;4.17;;
70556;SDS011;58107;51.034;3.726;2022-09-13T18:14:05;14.03;;;4.95;;
70556;SDS011;58107;51.034;3.726;2022-09-13T18:16:35;12.35;;;5.03;;
70556;SDS011;58107;51.034;3.726;2022-09-13T18:19:03;15.83;;;5.72;;
70556;SDS011;58107;51.034;3.726;2022-09-13T18:21:32;12.28;;;5.25;;